Time;durP1;ratioP1;P1;durP2;ratioP2;P2;SDS_P1;SDS_P2;PMS_P1;PMS_P2;Temp;Humidity;BMP_temperature;BMP_pressure;BME280_temperature;BME280_humidity;BME280_pressure;Samples;Min_cycle;Max_cycle;Signal;HPM_P1;HPM_P2
2022/07/05 04:16:35;;;;;;;2.97;0.55;;;19.70;62.20;;;;;;5490521;24;20052;-72
2022/07/05 04:19:01;;;;;;;0.95;0.40;;;19.80;62.90;;;;;;4771536;30;20067;-74
2022/07/05 04:21:27;;;;;;;1.10;0.55;;;19.80;62.60;;;;;;4771824;30;20059;-69
2022/07/05 04:23:52;;;;;;;3.45;0.50;;;19.90;62.30;;;;;;4773554;30;20047;-72
2022/07/05 04:26:18;;;;;;;3.38;0.70;;;19.90;62.10;;;;;;4773260;30;20062;-74
2022/07/05 04:28:44;;;;;;;2.83;0.80;;;19.90;61.90;;;;;;4757028;30;20149;-76
2022/07/05 04:31:10;;;;;;;2.33;0.70;;;19.90;61.70;;;;;;4773288;30;20067;-75
2022/07/05 04:33:36;;;;;;;6.47;1.23;;;19.90;61.60;;;;;;4772843;30;20051;-76
2022/07/05 04:36:01;;;;;;;2.83;0.63;;;19.90;61.60;;;;;;4773717;30;20143;-74
2022/07/05 04:38:27;;;;;;;3.83;0.73;;;19.90;61.50;;;;;;4757948;30;20070;-76
2022/07/05 04:40:53;;;;;;;1.35;0.43;;;19.90;61.40;;;;;;4773471;30;20467;-75
2022/07/05 04:43:18;;;;;;;2.10;0.70;;;19.90;61.30;;;;;;4773242;30;20106;-74
2022/07/05 04:45:44;;;;;;;1.73;0.50;;;19.80;61.20;;;;;;4756796;30;20475;-74
2022/07/05 04:48:10;;;;;;;2.67;0.60;;;19.80;61.20;;;;;;4773099;30;20091;-77
2022/07/05 04:50:36;;;;;;;3.67;1.10;;;19.80;61.00;;;;;;4773550;30;20058;-75
2022/07/05 04:53:01;;;;;;;3.35;0.55;;;19.80;60.60;;;;;;4773346;30;20478;-76
2022/07/05 04:55:27;;;;;;;3.30;0.90;;;19.80;60.80;;;;;;4757153;30;20059;-76
2022/07/05 04:57:53;;;;;;;3.60;0.60;;;19.70;60.90;;;;;;4756963;30;20056;-74
2022/07/05 05:00:18;;;;;;;3.58;0.70;;;19.70;61.30;;;;;;4757595;30;20095;-75
2022/07/05 05:02:44;;;;;;;6.28;0.73;;;19.80;61.40;;;;;;4772898;30;20503;-75
2022/07/05 05:05:10;;;;;;;6.28;0.70;;;19.80;61.50;;;;;;4773080;30;20047;-76
2022/07/05 05:07:38;;;;;;;3.25;0.60;;;19.90;61.60;;;;;;4772919;30;20387;-78
2022/07/05 05:10:05;;;;;;;3.50;0.80;;;19.90;61.50;;;;;;4772493;30;20048;-75
2022/07/05 05:12:31;;;;;;;5.72;0.63;;;19.90;61.40;;;;;;4756079;30;20098;-76
2022/07/05 05:14:57;;;;;;;5.13;0.80;;;19.90;62.00;;;;;;4768442;30;20110;-76
2022/07/05 05:17:23;;;;;;;4.90;0.90;;;19.90;61.90;;;;;;4754317;30;20071;-79
2022/07/05 05:19:48;;;;;;;3.88;0.50;;;20.00;62.10;;;;;;4756323;30;20062;-76
2022/07/05 05:22:14;;;;;;;5.60;0.95;;;20.00;62.10;;;;;;4755526;30;20098;-76
2022/07/05 05:24:40;;;;;;;3.30;0.60;;;20.00;62.00;;;;;;4772110;30;20048;-76
2022/07/05 05:27:06;;;;;;;5.95;0.60;;;20.10;62.10;;;;;;4773254;30;20044;-76
2022/07/05 05:29:35;;;;;;;7.57;1.00;;;20.10;62.20;;;;;;4772312;30;20056;-84
2022/07/05 05:32:01;;;;;;;4.32;0.95;;;20.10;62.30;;;;;;4756795;30;20047;-77
2022/07/05 05:34:27;;;;;;;8.88;1.10;;;20.10;62.30;;;;;;4772524;30;20348;-76
2022/07/05 05:36:53;;;;;;;2.70;0.57;;;20.10;62.50;;;;;;4771682;30;20052;-74
2022/07/05 05:39:24;;;;;;;7.00;0.90;;;20.10;62.50;;;;;;4755949;30;20132;-85
2022/07/05 05:41:50;;;;;;;5.88;1.08;;;20.10;62.60;;;;;;4772116;30;20363;-82
2022/07/05 05:44:16;;;;;;;4.70;0.75;;;20.10;62.60;;;;;;4756547;30;20047;-80
2022/07/05 05:46:42;;;;;;;5.78;1.15;;;20.00;62.50;;;;;;4771849;30;20059;-80
2022/07/05 05:49:07;;;;;;;7.45;0.73;;;20.00;63.00;;;;;;4741861;30;20056;-79
2022/07/05 05:51:33;;;;;;;4.38;0.50;;;20.00;63.20;;;;;;4756793;30;20059;-76
2022/07/05 05:53:59;;;;;;;4.60;1.02;;;19.90;63.40;;;;;;4771696;30;20451;-77
2022/07/05 05:56:26;;;;;;;5.78;1.38;;;19.90;63.50;;;;;;4771801;30;20048;-78
2022/07/05 05:58:52;;;;;;;5.57;0.70;;;19.80;63.80;;;;;;4772387;30;20056;-76
2022/07/05 06:01:18;;;;;;;7.00;0.73;;;19.80;63.90;;;;;;4771460;30;20055;-78
2022/07/05 06:03:44;;;;;;;4.80;0.77;;;19.80;63.90;;;;;;4771407;30;20479;-80
2022/07/05 06:06:12;;;;;;;6.30;0.57;;;19.70;63.90;;;;;;4770884;30;20048;-80
2022/07/05 06:08:38;;;;;;;7.40;0.90;;;19.70;64.20;;;;;;4741621;30;20058;-75
2022/07/05 06:11:04;;;;;;;5.55;0.70;;;19.70;64.30;;;;;;4741345;30;20051;-79
2022/07/05 06:32:27;;;;;;;10.43;1.17;;;19.70;64.30;;;;;;4769911;30;20467;-80
2022/07/05 06:34:53;;;;;;;4.85;1.20;;;19.70;64.40;;;;;;4741263;30;20091;-78
2022/07/05 06:37:18;;;;;;;11.75;1.10;;;19.70;64.00;;;;;;4771822;30;20151;-81
2022/07/05 06:39:44;;;;;;;6.70;0.90;;;19.70;63.90;;;;;;4756250;30;20431;-76
2022/07/05 06:42:10;;;;;;;9.60;1.80;;;19.70;63.60;;;;;;4771913;30;20086;-76
2022/07/05 06:44:35;;;;;;;6.82;0.85;;;19.70;63.60;;;;;;4757508;30;20133;-75
2022/07/05 06:47:01;;;;;;;4.68;0.75;;;19.70;63.70;;;;;;4777926;30;20062;-76
2022/07/05 06:49:27;;;;;;;6.35;0.77;;;19.70;63.60;;;;;;4793187;30;20459;-77
2022/07/05 06:51:52;;;;;;;3.78;0.57;;;19.70;63.50;;;;;;4793316;30;20054;-75
2022/07/05 06:54:18;;;;;;;5.82;0.55;;;19.80;63.90;;;;;;4792953;30;20051;-76
2022/07/05 06:56:44;;;;;;;7.00;0.90;;;19.80;63.80;;;;;;4777965;30;20100;-75
2022/07/05 06:59:10;;;;;;;7.22;0.88;;;19.90;63.50;;;;;;4793636;30;20130;-76
2022/07/05 07:01:35;;;;;;;5.15;0.40;;;19.90;63.40;;;;;;4792423;30;20047;-79
2022/07/05 07:04:01;;;;;;;5.15;0.47;;;19.80;63.00;;;;;;4779024;30;20059;-76
2022/07/05 07:06:27;;;;;;;7.68;1.02;;;19.90;62.50;;;;;;4774726;30;20380;-77
2022/07/05 07:11:36;;;;;;;8.75;0.98;;;19.90;62.50;;;;;;4746483;30;20075;-77
2022/07/05 07:14:02;;;;;;;4.93;0.32;;;19.80;62.50;;;;;;4756557;30;20360;-78
2022/07/05 07:16:28;;;;;;;3.60;0.60;;;19.90;62.60;;;;;;4756773;30;20087;-78
2022/07/05 07:18:54;;;;;;;4.82;0.90;;;19.90;62.80;;;;;;4756840;30;20063;-75
2022/07/05 07:21:20;;;;;;;5.80;1.15;;;19.90;63.10;;;;;;4757137;30;20051;-74
2022/07/05 07:23:45;;;;;;;4.25;0.88;;;20.00;63.30;;;;;;4766168;30;20482;-76
2022/07/05 07:26:13;;;;;;;4.15;0.68;;;20.00;63.50;;;;;;4792463;30;20193;-75
2022/07/05 07:28:40;;;;;;;6.10;0.80;;;20.10;63.60;;;;;;4792116;30;20054;-75
2022/07/05 07:31:06;;;;;;;2.97;0.40;;;20.20;63.70;;;;;;4792471;30;20376;-76
2022/07/05 07:33:32;;;;;;;4.72;0.50;;;20.20;63.70;;;;;;4792519;30;20140;-76
2022/07/05 07:35:59;;;;;;;3.33;0.47;;;20.30;63.90;;;;;;4792352;30;20055;-75
2022/07/05 07:38:25;;;;;;;4.72;0.73;;;20.30;63.90;;;;;;4793004;30;20098;-74
2022/07/05 07:40:52;;;;;;;4.93;0.88;;;20.40;64.10;;;;;;4791924;30;20459;-76
2022/07/05 07:43:18;;;;;;;6.75;0.80;;;20.40;64.00;;;;;;4791799;30;20116;-76
2022/07/05 07:45:43;;;;;;;4.07;1.15;;;20.50;62.80;;;;;;4777986;30;20047;-76
2022/07/05 07:48:09;;;;;;;3.42;0.50;;;20.50;61.10;;;;;;4772127;30;20138;-77
2022/07/05 07:50:35;;;;;;;4.70;0.50;;;20.60;60.50;;;;;;4777312;30;20078;-75
2022/07/05 07:53:01;;;;;;;4.43;0.88;;;20.60;60.70;;;;;;4773648;30;20066;-75
2022/07/05 07:55:29;;;;;;;3.80;0.73;;;20.60;61.50;;;;;;4757595;30;20055;-74
2022/07/05 07:57:54;;;;;;;2.90;0.55;;;20.60;62.00;;;;;;4772470;30;20123;-75
2022/07/05 08:00:20;;;;;;;5.50;0.63;;;20.60;62.20;;;;;;4757955;30;20444;-74
2022/07/05 08:02:47;;;;;;;4.03;0.77;;;20.60;62.30;;;;;;4773416;30;20051;-75
2022/07/05 08:05:12;;;;;;;4.22;0.47;;;20.60;62.40;;;;;;4773293;30;20126;-76
2022/07/05 08:07:38;;;;;;;6.20;0.60;;;20.60;62.60;;;;;;4773731;30;20459;-74
2022/07/05 08:10:05;;;;;;;3.67;0.88;;;20.60;62.70;;;;;;4773624;30;20131;-75
2022/07/05 08:12:31;;;;;;;3.17;0.30;;;20.70;62.80;;;;;;4773163;30;20097;-76
2022/07/05 08:14:57;;;;;;;4.45;0.50;;;20.70;61.10;;;;;;4786620;30;20091;-74
2022/07/05 08:17:23;;;;;;;3.65;0.65;;;20.70;61.10;;;;;;4776004;30;20051;-73
2022/07/05 08:22:33;;;;;;;2.83;0.93;;;20.80;61.90;;;;;;4791109;30;20059;-76
2022/07/05 08:24:59;;;;;;;4.35;0.68;;;20.80;62.20;;;;;;4791016;30;20062;-76
2022/07/05 08:27:25;;;;;;;3.30;0.63;;;20.80;62.10;;;;;;4788634;30;20055;-75
2022/07/05 08:29:50;;;;;;;3.35;0.40;;;20.80;62.10;;;;;;4757198;30;20384;-76
2022/07/05 08:32:18;;;;;;;3.70;0.43;;;20.80;62.20;;;;;;4772640;30;20063;-79
2022/07/05 08:34:44;;;;;;;6.80;0.73;;;20.80;62.20;;;;;;4772755;30;20048;-75
2022/07/05 08:37:10;;;;;;;5.20;0.50;;;20.80;62.30;;;;;;4772687;30;20363;-77
2022/07/05 08:39:36;;;;;;;2.80;0.40;;;20.80;62.10;;;;;;4770909;30;20048;-75
2022/07/05 08:42:02;;;;;;;7.25;0.60;;;20.80;62.10;;;;;;4771916;30;20047;-75
2022/07/05 08:44:32;;;;;;;3.72;0.68;;;20.90;62.30;;;;;;4771882;30;20456;-79
2022/07/05 08:47:01;;;;;;;5.18;0.70;;;20.90;62.20;;;;;;4756783;30;20160;-76
2022/07/05 08:49:30;;;;;;;5.55;0.68;;;20.90;61.90;;;;;;4757344;30;20464;-78
2022/07/05 08:51:56;;;;;;;2.90;0.95;;;20.90;61.40;;;;;;4765235;30;20375;-76
2022/07/05 08:54:24;;;;;;;4.10;0.40;;;20.90;61.20;;;;;;4776380;30;20056;-76
2022/07/05 08:56:50;;;;;;;7.60;0.50;;;20.80;60.90;;;;;;4757123;30;20131;-75
2022/07/05 08:59:16;;;;;;;4.47;0.35;;;20.80;61.60;;;;;;4757092;30;20048;-75
2022/07/05 09:01:44;;;;;;;4.47;0.77;;;20.90;61.90;;;;;;4756821;30;20538;-75
2022/07/05 09:04:13;;;;;;;2.05;0.50;;;20.90;61.90;;;;;;4756829;30;20059;-78
2022/07/05 09:06:40;;;;;;;3.90;0.45;;;20.90;61.90;;;;;;4756753;30;20475;-78
2022/07/05 09:09:07;;;;;;;2.45;0.65;;;20.90;61.80;;;;;;4772355;30;20054;-78
2022/07/05 09:11:41;;;;;;;5.63;0.60;;;20.90;61.70;;;;;;4757029;30;20495;-78
2022/07/05 09:14:25;;;;;;;5.10;0.88;;;20.90;61.60;;;;;;4772614;30;20395;-76
2022/07/05 09:16:52;;;;;;;5.65;0.68;;;21.00;61.70;;;;;;4772525;30;20059;-76
2022/07/05 09:19:19;;;;;;;2.72;0.50;;;21.00;61.80;;;;;;4757030;30;20064;-76
2022/07/05 09:21:45;;;;;;;3.88;0.55;;;21.00;61.70;;;;;;4772308;30;20060;-78
2022/07/05 09:24:12;;;;;;;3.67;0.68;;;21.00;61.60;;;;;;4772569;30;20048;-78
2022/07/05 09:26:48;;;;;;;5.57;0.70;;;21.00;61.90;;;;;;4756400;30;20052;-76
2022/07/05 09:29:19;;;;;;;3.67;0.60;;;21.00;61.90;;;;;;4769509;30;20433;-76
2022/07/05 09:31:46;;;;;;;3.20;0.50;;;21.00;61.80;;;;;;4756139;30;20060;-77
2022/07/05 09:34:14;;;;;;;5.75;0.40;;;21.10;61.90;;;;;;4765631;30;20059;-77
2022/07/05 09:37:01;;;;;;;4.10;0.47;;;21.10;62.10;;;;;;4771013;30;20429;-76
2022/07/05 09:39:30;;;;;;;4.47;0.77;;;21.10;62.00;;;;;;4756531;30;20060;-78
2022/07/05 09:42:23;;;;;;;3.38;0.70;;;21.10;60.50;;;;;;4784798;30;20094;-78
2022/07/05 09:44:52;;;;;;;4.93;0.60;;;21.10;60.10;;;;;;4790000;30;20047;-75
2022/07/05 09:47:23;;;;;;;5.50;0.60;;;21.00;59.50;;;;;;4790016;30;20043;-76
2022/07/05 09:50:03;;;;;;;3.45;0.52;;;21.00;60.00;;;;;;4774198;30;20470;-76
2022/07/05 09:52:37;;;;;;;3.70;0.40;;;21.00;60.30;;;;;;4766658;30;20052;-77
2022/07/05 09:55:18;;;;;;;2.22;0.47;;;21.10;60.50;;;;;;4753109;30;20131;-79
2022/07/05 09:57:46;;;;;;;5.07;0.30;;;21.10;60.30;;;;;;4754263;30;20048;-77
2022/07/05 10:00:15;;;;;;;2.03;0.43;;;21.10;60.30;;;;;;4738907;30;20064;-77
2022/07/05 10:02:51;;;;;;;2.65;0.50;;;21.10;60.30;;;;;;4766594;30;20056;-76
2022/07/05 10:05:22;;;;;;;2.72;0.25;;;21.20;60.40;;;;;;4771565;30;20043;-78
2022/07/05 10:07:48;;;;;;;2.38;0.35;;;21.20;60.50;;;;;;4771670;30;20490;-78
2022/07/05 10:10:23;;;;;;;2.17;0.70;;;21.20;60.40;;;;;;4771845;30;20047;-77
2022/07/05 10:12:50;;;;;;;2.38;0.40;;;21.20;60.40;;;;;;4756050;30;20059;-80
2022/07/05 10:15:22;;;;;;;2.78;0.20;;;21.20;60.50;;;;;;4771426;30;20055;-77
2022/07/05 10:18:00;;;;;;;2.35;0.50;;;21.20;60.20;;;;;;4762792;30;20059;-78
2022/07/05 10:20:29;;;;;;;1.23;0.20;;;21.30;60.50;;;;;;4773422;30;20130;-77
2022/07/05 10:22:57;;;;;;;3.50;0.45;;;21.30;61.00;;;;;;4759650;30;20059;-77
2022/07/05 10:25:24;;;;;;;2.20;0.50;;;21.30;59.20;;;;;;4775525;30;20044;-78
2022/07/05 10:27:54;;;;;;;3.47;0.50;;;21.30;58.50;;;;;;4782818;30;20047;-78
2022/07/05 10:30:22;;;;;;;4.28;0.63;;;21.20;57.50;;;;;;4792699;30;20086;-78
2022/07/05 10:32:48;;;;;;;3.55;0.80;;;21.20;57.20;;;;;;4793083;30;20063;-76
2022/07/05 10:35:15;;;;;;;5.10;0.60;;;21.20;57.30;;;;;;4793384;30;20128;-76
2022/07/05 10:37:41;;;;;;;3.22;0.52;;;21.20;57.70;;;;;;4786663;30;20063;-82
2022/07/05 10:40:08;;;;;;;3.35;0.52;;;21.30;57.00;;;;;;4759606;30;20059;-76
2022/07/05 10:42:41;;;;;;;2.50;0.70;;;21.30;57.30;;;;;;4759594;30;20052;-77
2022/07/05 10:45:33;;;;;;;4.85;0.60;;;21.20;57.40;;;;;;4775742;30;20458;-75
2022/07/05 10:48:17;;;;;;;3.42;0.80;;;21.10;57.30;;;;;;4775136;30;20052;-76
2022/07/05 10:50:48;;;;;;;3.83;0.52;;;21.10;57.60;;;;;;4775061;30;20134;-77
2022/07/05 10:53:14;;;;;;;4.32;0.77;;;21.10;58.00;;;;;;4775673;30;20138;-77
2022/07/05 10:55:56;;;;;;;11.75;2.25;;;21.00;58.30;;;;;;4766226;30;20058;-76
2022/07/05 10:58:24;;;;;;;4.30;0.80;;;21.00;59.10;;;;;;4792545;30;20539;-77
2022/07/05 11:01:12;;;;;;;6.50;0.57;;;21.00;59.30;;;;;;4793008;30;20124;-74
2022/07/05 11:03:43;;;;;;;3.03;0.82;;;21.00;59.50;;;;;;4792799;30;20071;-74
2022/07/05 11:06:22;;;;;;;5.88;1.00;;;21.00;59.60;;;;;;4776930;30;20128;-75
2022/07/05 11:09:00;;;;;;;5.60;1.02;;;21.00;59.50;;;;;;4776886;30;20070;-76
2022/07/05 11:11:42;;;;;;;4.90;0.85;;;21.10;59.60;;;;;;4793029;30;20329;-76
2022/07/05 11:14:29;;;;;;;7.20;0.80;;;21.00;59.50;;;;;;4776458;30;20051;-75
2022/07/05 11:17:19;;;;;;;6.50;1.13;;;21.10;59.50;;;;;;4790024;30;20059;-75
2022/07/05 11:20:08;;;;;;;5.63;0.77;;;21.10;59.60;;;;;;4758098;30;20055;-76
2022/07/05 11:22:36;;;;;;;4.40;0.65;;;21.10;59.20;;;;;;4758045;30;20116;-74
2022/07/05 11:25:03;;;;;;;5.22;0.60;;;21.10;58.90;;;;;;4759431;30;20514;-74
2022/07/05 11:27:32;;;;;;;5.65;1.17;;;21.10;59.20;;;;;;4776368;30;20059;-77
2022/07/05 11:29:58;;;;;;;4.63;0.68;;;21.20;59.50;;;;;;4792690;30;20055;-73
2022/07/05 11:32:23;;;;;;;4.15;0.60;;;21.20;59.70;;;;;;4791428;29;20518;-73
2022/07/05 11:34:51;;;;;;;3.55;0.50;;;21.20;59.70;;;;;;4776702;30;20062;-75
2022/07/05 11:37:40;;;;;;;4.88;0.90;;;21.30;59.70;;;;;;4792434;30;20368;-74
2022/07/05 11:40:06;;;;;;;4.65;0.68;;;21.30;59.60;;;;;;4775905;30;20063;-75
2022/07/05 11:42:34;;;;;;;2.90;0.60;;;21.30;59.70;;;;;;4777187;30;20067;-73
2022/07/05 11:45:00;;;;;;;3.28;0.77;;;21.30;58.30;;;;;;4792446;30;20066;-74
2022/07/05 11:47:27;;;;;;;3.92;0.63;;;21.20;57.90;;;;;;4791582;30;20047;-74
2022/07/05 11:49:57;;;;;;;3.30;0.73;;;21.10;58.60;;;;;;4791354;30;20139;-74
2022/07/05 11:52:30;;;;;;;4.20;0.73;;;21.10;58.70;;;;;;4775718;30;20070;-76
2022/07/05 11:54:56;;;;;;;2.50;0.60;;;21.10;59.00;;;;;;4771352;30;20055;-74
2022/07/05 11:57:23;;;;;;;3.33;0.43;;;21.10;59.20;;;;;;4773624;30;20055;-73
2022/07/05 11:59:49;;;;;;;2.05;0.52;;;21.10;59.30;;;;;;4758380;30;20087;-76
2022/07/05 12:02:16;;;;;;;3.05;0.50;;;21.10;59.40;;;;;;4776761;30;20047;-74
2022/07/05 12:04:50;;;;;;;3.28;0.73;;;21.20;59.50;;;;;;4758426;30;20113;-74
2022/07/05 12:07:29;;;;;;;2.75;0.50;;;21.20;59.60;;;;;;4773983;30;20099;-76
2022/07/05 12:12:44;;;;;;;4.57;0.65;;;21.20;58.90;;;;;;4773822;30;20067;-76
2022/07/05 12:15:12;;;;;;;2.20;0.40;;;21.20;58.40;;;;;;4757992;30;20063;-75
2022/07/05 12:17:39;;;;;;;2.00;0.40;;;21.20;58.10;;;;;;4758248;30;20059;-76
2022/07/05 12:20:07;;;;;;;3.05;0.57;;;21.20;58.20;;;;;;4773689;30;20101;-75
2022/07/05 12:22:35;;;;;;;1.65;0.50;;;21.20;58.60;;;;;;4773825;30;20078;-76
2022/07/05 12:25:03;;;;;;;2.58;0.40;;;21.20;58.60;;;;;;4773625;30;20056;-76
2022/07/05 12:27:31;;;;;;;1.48;0.40;;;21.20;58.70;;;;;;4757864;30;20134;-76
2022/07/05 12:29:57;;;;;;;8.40;0.80;;;21.30;58.70;;;;;;4773418;30;20457;-74
2022/07/05 12:32:23;;;;;;;10.32;0.60;;;21.30;58.90;;;;;;4755709;30;20087;-73
2022/07/05 12:34:49;;;;;;;13.55;1.52;;;21.30;59.00;;;;;;4755667;30;20091;-75
2022/07/05 12:37:25;;;;;;;6.95;1.23;;;21.30;59.10;;;;;;4755371;30;20145;-75
2022/07/05 12:40:04;;;;;;;6.18;0.50;;;21.30;59.00;;;;;;4764276;30;20048;-77
2022/07/05 12:42:38;;;;;;;7.88;1.10;;;21.30;59.30;;;;;;4753289;30;20415;-80
2022/07/05 12:45:18;;;;;;;8.18;1.10;;;21.30;59.80;;;;;;4790930;30;20051;-80
2022/07/05 12:47:53;;;;;;;9.88;0.98;;;21.30;59.90;;;;;;4774564;30;20051;-78
2022/07/05 12:50:19;;;;;;;6.88;1.00;;;21.40;59.90;;;;;;4790783;30;20462;-78
2022/07/05 12:53:00;;;;;;;8.98;0.98;;;21.40;59.80;;;;;;4774923;30;20138;-75
2022/07/05 12:58:21;;;;;;;9.00;0.93;;;21.40;60.30;;;;;;4775135;30;20138;-78
2022/07/05 13:00:47;;;;;;;8.10;1.27;;;21.40;60.50;;;;;;4790968;30;20139;-78
2022/07/05 13:03:12;;;;;;;8.88;1.75;;;21.40;60.80;;;;;;4790765;30;20047;-78
2022/07/05 13:05:39;;;;;;;12.45;2.47;;;21.50;61.00;;;;;;4790874;30;20059;-76
2022/07/05 13:08:05;;;;;;;10.25;2.28;;;21.50;61.00;;;;;;4790695;30;20055;-76
2022/07/05 13:10:34;;;;;;;11.30;1.90;;;21.50;61.10;;;;;;4774737;30;20062;-79
2022/07/05 13:13:01;;;;;;;6.40;1.40;;;21.50;61.20;;;;;;4761465;30;20067;-76
2022/07/05 13:15:27;;;;;;;9.18;1.48;;;21.50;60.90;;;;;;4772529;30;20134;-77
2022/07/05 13:17:53;;;;;;;7.88;1.38;;;21.50;59.80;;;;;;4773239;30;20138;-79
2022/07/05 13:20:22;;;;;;;14.95;2.30;;;21.50;58.60;;;;;;4757259;30;20067;-75
2022/07/05 13:22:48;;;;;;;11.05;2.40;;;21.40;58.90;;;;;;4772884;30;20051;-75
2022/07/05 13:25:14;;;;;;;14.27;1.80;;;21.40;59.20;;;;;;4781648;30;20055;-75
2022/07/05 13:27:41;;;;;;;10.73;1.50;;;21.40;59.50;;;;;;4790327;30;20155;-76
2022/07/05 13:30:07;;;;;;;10.30;1.42;;;21.40;59.30;;;;;;4790411;30;20066;-76
2022/07/05 13:32:33;;;;;;;8.65;1.65;;;21.40;59.50;;;;;;4790826;30;20474;-77
2022/07/05 13:34:59;;;;;;;9.90;1.38;;;21.40;58.70;;;;;;4790426;30;20050;-75
2022/07/05 13:37:24;;;;;;;6.68;1.30;;;21.50;59.20;;;;;;4770448;30;20058;-78
2022/07/05 13:39:50;;;;;;;8.48;1.08;;;21.50;59.30;;;;;;4772317;30;20066;-77
2022/07/05 13:42:16;;;;;;;5.30;1.17;;;21.50;59.20;;;;;;4773077;30;20093;-76
2022/07/05 13:44:42;;;;;;;8.05;1.80;;;21.40;58.80;;;;;;4756972;30;20113;-78
2022/07/05 13:47:08;;;;;;;6.63;2.00;;;21.40;59.20;;;;;;4756854;30;20048;-80
2022/07/05 13:49:34;;;;;;;5.78;1.70;;;21.40;59.10;;;;;;4762494;30;20043;-79
2022/07/05 13:52:01;;;;;;;3.70;1.00;;;21.50;58.30;;;;;;4790234;30;20449;-81
2022/07/05 13:54:28;;;;;;;3.97;1.05;;;21.40;57.20;;;;;;4753654;30;20051;-79
2022/07/05 13:56:54;;;;;;;3.00;1.42;;;21.40;57.30;;;;;;4772020;30;20379;-80
2022/07/05 13:59:19;;;;;;;4.15;0.80;;;21.40;57.30;;;;;;4756143;30;20051;-78
2022/07/05 14:01:45;;;;;;;3.65;0.98;;;21.40;58.50;;;;;;4771637;30;20131;-77
2022/07/05 14:04:11;;;;;;;2.65;0.52;;;21.40;58.50;;;;;;4772019;30;20130;-80
2022/07/05 14:06:37;;;;;;;2.92;0.50;;;21.30;57.50;;;;;;4756167;30;20143;-77
2022/07/05 14:09:04;;;;;;;2.83;0.60;;;21.30;56.40;;;;;;4772786;30;20476;-80
2022/07/05 14:11:29;;;;;;;7.57;0.88;;;21.30;56.40;;;;;;4771891;30;20067;-79
2022/07/05 14:13:56;;;;;;;7.43;1.05;;;21.20;56.80;;;;;;4771896;30;20212;-76
2022/07/05 14:16:25;;;;;;;4.60;1.02;;;21.20;56.60;;;;;;4771861;30;20124;-79
2022/07/05 14:18:52;;;;;;;9.82;1.38;;;21.20;56.80;;;;;;4756497;30;20159;-76
2022/07/05 14:21:19;;;;;;;6.75;0.82;;;21.20;57.00;;;;;;4771718;30;20063;-75
2022/07/05 14:23:48;;;;;;;5.28;1.00;;;21.20;57.50;;;;;;4757055;30;20063;-76
2022/07/05 14:26:16;;;;;;;7.40;1.25;;;21.20;57.60;;;;;;4771734;30;20082;-76
2022/07/05 14:28:42;;;;;;;10.98;1.23;;;21.20;58.10;;;;;;4756983;30;20048;-77
2022/07/05 14:31:08;;;;;;;9.75;1.30;;;21.20;57.60;;;;;;4771476;30;20139;-77
2022/07/05 14:33:35;;;;;;;7.60;1.52;;;21.20;57.50;;;;;;4755701;30;20126;-77
2022/07/05 14:36:01;;;;;;;6.45;0.60;;;21.20;57.20;;;;;;4771295;30;20063;-76
2022/07/05 14:38:27;;;;;;;19.83;1.88;;;21.20;57.00;;;;;;4772063;30;20464;-76
2022/07/05 14:40:53;;;;;;;15.80;1.80;;;21.20;57.00;;;;;;4755999;30;20083;-77
2022/07/05 14:43:19;;;;;;;9.63;0.90;;;21.20;56.60;;;;;;4756254;30;20463;-75
2022/07/05 14:45:45;;;;;;;12.20;1.25;;;21.10;56.40;;;;;;4756902;30;20091;-77
2022/07/05 14:48:11;;;;;;;6.05;0.80;;;21.10;55.70;;;;;;4771923;30;20132;-77
2022/07/05 14:50:36;;;;;;;8.23;1.08;;;21.10;55.80;;;;;;4771863;30;20067;-77
2022/07/05 14:53:07;;;;;;;8.30;0.65;;;21.10;56.60;;;;;;4771660;30;20361;-77
2022/07/05 14:55:35;;;;;;;9.48;0.98;;;21.10;56.30;;;;;;4771740;30;20130;-76
2022/07/05 14:58:00;;;;;;;9.13;0.90;;;21.00;56.40;;;;;;4771777;30;20487;-75
2022/07/05 15:00:26;;;;;;;12.00;1.15;;;21.10;56.60;;;;;;4772052;30;20083;-78
2022/07/05 15:02:52;;;;;;;12.13;0.95;;;21.10;57.50;;;;;;4755773;30;20056;-79
2022/07/05 15:05:17;;;;;;;12.30;1.42;;;21.10;57.40;;;;;;4771847;30;20048;-78
2022/07/05 15:07:43;;;;;;;10.38;1.65;;;21.20;57.30;;;;;;4775392;30;20484;-77
2022/07/05 15:10:09;;;;;;;9.85;1.17;;;21.20;57.20;;;;;;4775098;30;20056;-77
2022/07/05 15:12:35;;;;;;;6.53;1.05;;;21.20;57.30;;;;;;4759400;30;20371;-78
2022/07/05 15:15:01;;;;;;;9.25;1.10;;;21.20;57.20;;;;;;4758239;30;20067;-77
2022/07/05 15:17:27;;;;;;;12.48;1.02;;;21.20;57.20;;;;;;4774951;30;20056;-77
2022/07/05 15:19:55;;;;;;;7.32;0.88;;;21.20;57.90;;;;;;4774716;30;20051;-78
2022/07/05 15:22:21;;;;;;;8.07;1.13;;;21.20;57.50;;;;;;4777139;30;20394;-74
2022/07/05 15:24:47;;;;;;;8.95;0.80;;;21.30;57.80;;;;;;4774250;30;20059;-76
2022/07/05 15:27:13;;;;;;;6.53;0.70;;;21.30;58.10;;;;;;4774666;30;20052;-75
2022/07/05 15:29:38;;;;;;;4.28;0.80;;;21.30;58.30;;;;;;4776817;30;20059;-78
2022/07/05 15:32:07;;;;;;;8.25;0.80;;;21.30;58.60;;;;;;4775164;30;20070;-75
2022/07/05 15:34:33;;;;;;;11.10;1.15;;;21.30;58.80;;;;;;4768390;30;20063;-75
2022/07/05 15:36:59;;;;;;;8.88;0.90;;;21.30;58.90;;;;;;4774728;30;20402;-73
2022/07/05 15:39:26;;;;;;;5.30;0.60;;;21.40;59.70;;;;;;4768743;30;20111;-79
2022/07/05 15:41:52;;;;;;;8.27;1.13;;;21.40;59.30;;;;;;4755893;30;20086;-77
2022/07/05 15:44:18;;;;;;;5.70;1.17;;;21.40;59.30;;;;;;4784055;30;20075;-77
2022/07/05 15:46:59;;;;;;;4.68;0.85;;;21.40;59.20;;;;;;4773910;30;20048;-76
2022/07/05 15:49:25;;;;;;;4.22;0.68;;;21.40;59.10;;;;;;4774262;30;20411;-77
2022/07/05 15:51:50;;;;;;;5.78;0.73;;;21.40;59.00;;;;;;4773749;30;20051;-77
2022/07/05 15:54:16;;;;;;;4.15;0.43;;;21.40;58.90;;;;;;4773960;30;20052;-77
2022/07/05 15:56:42;;;;;;;3.97;0.70;;;21.40;58.90;;;;;;4774115;30;20056;-76
2022/07/05 15:59:08;;;;;;;3.40;0.88;;;21.40;58.70;;;;;;4758317;30;20448;-76
2022/07/05 16:01:34;;;;;;;3.65;0.82;;;21.40;58.50;;;;;;4772850;30;20157;-79
2022/07/05 16:04:00;;;;;;;2.65;0.52;;;21.40;58.60;;;;;;4758269;30;20064;-78
2022/07/05 16:06:25;;;;;;;3.40;0.40;;;21.50;58.80;;;;;;4772973;30;20048;-78
2022/07/05 16:08:51;;;;;;;2.05;0.35;;;21.50;58.90;;;;;;4770951;30;20135;-76
2022/07/05 16:11:17;;;;;;;3.80;0.68;;;21.50;59.00;;;;;;4773271;30;20051;-76
2022/07/05 16:13:42;;;;;;;2.65;0.38;;;21.50;59.10;;;;;;4773991;30;20468;-78
2022/07/05 16:16:11;;;;;;;2.58;0.55;;;21.50;59.10;;;;;;4773597;30;20512;-80
2022/07/05 16:18:38;;;;;;;2.35;0.40;;;21.50;59.00;;;;;;4771884;30;20054;-78
2022/07/05 16:21:05;;;;;;;3.22;0.43;;;21.50;59.00;;;;;;4773754;30;20097;-77
2022/07/05 16:23:31;;;;;;;3.42;0.30;;;21.50;59.00;;;;;;4757237;30;20055;-77
2022/07/05 16:26:01;;;;;;;2.75;0.40;;;21.50;59.40;;;;;;4758385;30;20134;-79
2022/07/05 16:28:31;;;;;;;8.85;0.82;;;21.60;59.20;;;;;;4773274;30;20105;-77
2022/07/05 16:31:02;;;;;;;5.00;0.70;;;21.60;59.50;;;;;;4773217;30;20063;-77
2022/07/05 16:33:30;;;;;;;7.03;1.42;;;21.60;59.70;;;;;;4757778;30;20052;-78
2022/07/05 16:35:56;;;;;;;4.93;0.93;;;21.60;60.10;;;;;;4773356;30;20341;-77
2022/07/05 16:38:22;;;;;;;18.15;3.58;;;21.60;60.20;;;;;;4772725;30;20117;-77
2022/07/05 16:40:47;;;;;;;4.03;1.02;;;21.60;60.80;;;;;;4757302;30;20051;-76
2022/07/05 17:52:39;;;;;;;5.53;0.50;;;21.70;60.60;;;;;;4862044;24;20079;-75
2022/07/05 17:55:05;;;;;;;2.92;0.68;;;21.70;60.50;;;;;;4772090;30;20083;-74
2022/07/05 17:57:31;;;;;;;5.00;1.42;;;21.70;60.50;;;;;;4772020;30;20431;-76
2022/07/05 17:59:57;;;;;;;4.97;0.50;;;21.70;60.40;;;;;;4757559;30;20039;-79
2022/07/05 18:02:22;;;;;;;2.97;0.70;;;21.70;60.30;;;;;;4771493;30;20083;-75
2022/07/05 18:04:48;;;;;;;3.55;0.70;;;21.70;59.40;;;;;;4770961;30;20059;-77
2022/07/05 18:07:14;;;;;;;2.80;0.63;;;21.60;58.20;;;;;;4771807;30;20413;-80
2022/07/05 18:09:46;;;;;;;6.63;0.70;;;21.60;57.60;;;;;;4726215;30;20062;-80
2022/07/05 18:12:12;;;;;;;6.07;0.77;;;21.50;57.50;;;;;;4754179;30;20048;-78
2022/07/05 18:14:38;;;;;;;4.20;0.60;;;21.40;57.70;;;;;;4760691;30;20047;-78
2022/07/05 18:17:04;;;;;;;7.22;0.73;;;21.30;57.50;;;;;;4756467;30;20468;-77
2022/07/05 18:19:30;;;;;;;4.03;0.60;;;21.30;56.80;;;;;;4771604;30;20054;-79
2022/07/05 18:21:55;;;;;;;3.13;0.55;;;21.20;56.50;;;;;;4755729;30;20047;-78
2022/07/05 18:24:21;;;;;;;2.47;0.40;;;21.10;57.00;;;;;;4755556;30;20055;-80
2022/07/05 18:26:47;;;;;;;2.80;0.52;;;21.10;56.60;;;;;;4756247;30;20156;-78
2022/07/05 18:29:13;;;;;;;5.38;0.60;;;21.10;56.70;;;;;;4756368;30;20052;-78
2022/07/05 18:31:41;;;;;;;4.38;0.68;;;21.10;57.00;;;;;;4754929;30;20066;-77
2022/07/05 18:34:07;;;;;;;5.38;0.40;;;21.00;57.10;;;;;;4771840;30;20376;-80
2022/07/05 18:36:33;;;;;;;2.35;0.60;;;20.90;57.40;;;;;;4755946;30;20543;-77
2022/07/05 18:38:58;;;;;;;3.00;0.50;;;20.90;57.90;;;;;;4771382;30;20062;-76
2022/07/05 18:41:24;;;;;;;3.55;0.68;;;20.90;58.10;;;;;;4772780;30;20044;-77
2022/07/05 18:43:50;;;;;;;6.18;0.55;;;20.90;57.90;;;;;;4775493;30;20093;-75